Station Historical Data
Daily Summary for September 14, 2017 Units:  English    Metric   Both
« Previous Day
Next Day »
Daily Weekly Monthly Yearly Custom
  High: Low: Average:
Temperature: 73.8 °F 63.9 °F 68.3 °F
Dew Point: 65.6 °F 60.2 °F 62.5 °F
Humidity: 91% 72% 82%
Wind Speed: 12.0mph 0.0mph 3.1mph
Wind Gust: 16.0mph - -
Wind- - WSW
Pressure: 29.97 in 29.78 in -
Precipitation: 0.00 in    
Historical Graphs
 
 
Tabular Data for September 14, 2017
Time Temperature Dew Point Pressure Wind Wind Speed Wind Gust Humidity Rainfall Rate (Hourly)
00:04 65.3 °F 61.0 °F 29.79 in Calm     86% 0.00 in
00:09 65.3 °F 61.0 °F 29.78 in Calm     86% 0.00 in
00:14 65.0 °F 60.7 °F 29.78 in Calm     86% 0.00 in
00:19 64.9 °F 60.6 °F 29.79 in Calm     86% 0.00 in
00:24 64.8 °F 60.5 °F 29.79 in Calm     86% 0.00 in
00:29 64.6 °F 60.3 °F 29.78 in Calm     86% 0.00 in
00:34 64.3 °F 60.3 °F 29.79 in Calm     87% 0.00 in
00:39 64.3 °F 60.3 °F 29.79 in Calm     87% 0.00 in
00:44 64.1 °F 60.2 °F 29.79 in Calm     87% 0.00 in
00:49 64.0 °F 60.4 °F 29.79 in Calm     88% 0.00 in
00:54 63.9 °F 60.3 °F 29.79 in Calm     88% 0.00 in
00:59 63.9 °F 60.3 °F 29.79 in Calm     88% 0.00 in
01:04 63.9 °F 60.3 °F 29.79 in Calm     88% 0.00 in
01:09 63.9 °F 60.3 °F 29.79 in Calm     88% 0.00 in
01:14 64.1 °F 60.8 °F 29.79 in Calm     89% 0.00 in
01:19 64.2 °F 60.9 °F 29.80 in Calm     89% 0.00 in
01:24 64.4 °F 61.1 °F 29.80 in Calm     89% 0.00 in
01:29 64.6 °F 61.3 °F 29.80 in Calm     89% 0.00 in
01:34 64.8 °F 61.2 °F 29.80 in Calm     88% 0.00 in
01:39 65.0 °F 61.4 °F 29.79 in Calm     88% 0.00 in
01:44 65.1 °F 61.5 °F 29.79 in Calm     88% 0.00 in
01:49 65.1 °F 61.5 °F 29.79 in Calm     88% 0.00 in
01:54 65.1 °F 61.5 °F 29.79 in Calm     88% 0.00 in
01:59 65.1 °F 61.5 °F 29.80 in Calm     88% 0.00 in
02:04 65.2 °F 61.6 °F 29.80 in Calm     88% 0.00 in
02:09 65.3 °F 61.7 °F 29.80 in Calm     88% 0.00 in
02:14 65.3 °F 61.7 °F 29.80 in Calm     88% 0.00 in
02:19 65.4 °F 61.4 °F 29.80 in Calm     87% 0.00 in
02:24 65.5 °F 61.5 °F 29.80 in Calm     87% 0.00 in
02:29 65.5 °F 61.5 °F 29.80 in Calm     87% 0.00 in
02:34 65.4 °F 61.4 °F 29.80 in Calm     87% 0.00 in
02:39 65.4 °F 61.4 °F 29.80 in Calm     87% 0.00 in
02:44 65.4 °F 61.4 °F 29.80 in Calm     87% 0.00 in
02:49 65.4 °F 61.4 °F 29.80 in Calm     87% 0.00 in
02:54 65.5 °F 61.5 °F 29.79 in Calm     87% 0.00 in
02:59 65.4 °F 61.4 °F 29.79 in Calm     87% 0.00 in
03:04 65.3 °F 61.3 °F 29.79 in Calm     87% 0.00 in
03:09 65.2 °F 61.6 °F 29.79 in Calm     88% 0.00 in
03:14 65.1 °F 61.5 °F 29.79 in Calm     88% 0.00 in
03:19 65.0 °F 61.4 °F 29.79 in Calm     88% 0.00 in
03:24 65.0 °F 61.4 °F 29.79 in Calm     88% 0.00 in
03:29 64.9 °F 61.3 °F 29.79 in Calm     88% 0.00 in
03:34 64.9 °F 61.3 °F 29.79 in Calm     88% 0.00 in
03:39 64.9 °F 61.3 °F 29.79 in Calm     88% 0.00 in
03:44 64.9 °F 61.3 °F 29.80 in Calm     88% 0.00 in
03:49 65.0 °F 61.7 °F 29.80 in Calm     89% 0.00 in
03:54 65.1 °F 61.8 °F 29.80 in Calm     89% 0.00 in
03:59 65.2 °F 61.9 °F 29.79 in Calm     89% 0.00 in
04:04 65.4 °F 61.8 °F 29.79 in Calm     88% 0.00 in
04:09 65.4 °F 61.8 °F 29.79 in Calm     88% 0.00 in
04:14 65.5 °F 61.9 °F 29.79 in Calm     88% 0.00 in
04:19 65.5 °F 61.9 °F 29.79 in Calm     88% 0.00 in
04:24 65.4 °F 61.8 °F 29.80 in Calm     88% 0.00 in
04:29 65.3 °F 62.0 °F 29.80 in Calm     89% 0.00 in
04:34 65.2 °F 61.9 °F 29.80 in Calm     89% 0.00 in
04:39 65.1 °F 61.8 °F 29.80 in Calm     89% 0.00 in
04:44 65.2 °F 61.9 °F 29.80 in Calm   2.0 mph 89% 0.00 in
04:49 65.3 °F 62.3 °F 29.80 in Calm   2.0 mph 90% 0.00 in
04:54 65.4 °F 62.4 °F 29.80 in Calm   1.0 mph 90% 0.00 in
04:59 65.5 °F 62.5 °F 29.80 in Calm   3.0 mph 90% 0.00 in
05:04 65.7 °F 62.7 °F 29.80 in Calm   3.0 mph 90% 0.00 in
05:09 65.7 °F 62.7 °F 29.81 in Calm   2.0 mph 90% 0.00 in
05:14 65.8 °F 62.8 °F 29.81 in Calm   2.0 mph 90% 0.00 in
05:19 65.8 °F 62.8 °F 29.80 in Calm     90% 0.00 in
05:24 65.8 °F 62.8 °F 29.80 in Calm     90% 0.00 in
05:29 65.8 °F 62.8 °F 29.80 in Calm     90% 0.00 in
05:34 65.8 °F 62.8 °F 29.80 in Calm     90% 0.00 in
05:39 65.8 °F 62.8 °F 29.80 in Calm     90% 0.00 in
05:44 65.7 °F 62.7 °F 29.80 in Calm     90% 0.00 in
05:49 65.6 °F 62.6 °F 29.81 in Calm     90% 0.00 in
05:54 65.4 °F 62.4 °F 29.81 in Calm     90% 0.00 in
05:59 65.3 °F 62.6 °F 29.81 in Calm     91% 0.00 in
06:04 65.4 °F 62.7 °F 29.81 in Calm     91% 0.00 in
06:09 65.5 °F 62.8 °F 29.81 in Calm     91% 0.00 in
06:14 65.7 °F 63.0 °F 29.81 in Calm     91% 0.00 in
06:19 65.8 °F 63.1 °F 29.81 in Calm     91% 0.00 in
06:24 65.9 °F 63.2 °F 29.81 in Calm     91% 0.00 in
06:29 65.8 °F 63.1 °F 29.82 in Calm     91% 0.00 in
06:34 65.8 °F 63.1 °F 29.82 in West 3.0 mph 6.0 mph 91% 0.00 in
06:39 65.3 °F 62.3 °F 29.82 in WSW 4.0 mph 6.0 mph 90% 0.00 in
06:44 65.2 °F 62.2 °F 29.82 in West 1.0 mph 4.0 mph 90% 0.00 in
06:49 65.2 °F 62.2 °F 29.82 in West 2.0 mph 7.0 mph 90% 0.00 in
06:54 65.3 °F 62.0 °F 29.82 in WNW 2.0 mph 7.0 mph 89% 0.00 in
06:59 65.4 °F 61.8 °F 29.82 in West 1.0 mph 5.0 mph 88% 0.00 in
07:04 65.4 °F 61.8 °F 29.83 in Calm   1.0 mph 88% 0.00 in
07:09 65.4 °F 61.8 °F 29.83 in WSW 2.0 mph 3.0 mph 88% 0.00 in
07:14 65.5 °F 61.5 °F 29.83 in Calm   4.0 mph 87% 0.00 in
07:19 65.5 °F 61.5 °F 29.83 in WSW 1.0 mph 4.0 mph 87% 0.00 in
07:24 65.5 °F 61.5 °F 29.83 in Calm     87% 0.00 in
07:29 65.5 °F 61.5 °F 29.83 in Calm   3.0 mph 87% 0.00 in
07:34 65.5 °F 61.5 °F 29.83 in WSW 1.0 mph 6.0 mph 87% 0.00 in
07:39 65.6 °F 61.6 °F 29.84 in WSW 1.0 mph 2.0 mph 87% 0.00 in
07:44 65.7 °F 61.4 °F 29.84 in West 1.0 mph 3.0 mph 86% 0.00 in
07:49 65.8 °F 61.5 °F 29.84 in Calm   4.0 mph 86% 0.00 in
07:54 65.9 °F 61.6 °F 29.84 in WSW 1.0 mph 4.0 mph 86% 0.00 in
07:59 66.0 °F 61.7 °F 29.84 in Calm   2.0 mph 86% 0.00 in
08:04 66.2 °F 61.9 °F 29.84 in Calm     86% 0.00 in
08:09 66.3 °F 62.0 °F 29.84 in WSW 1.0 mph 4.0 mph 86% 0.00 in
08:14 66.4 °F 61.8 °F 29.84 in WSW 1.0 mph 4.0 mph 85% 0.00 in
08:19 66.5 °F 61.8 °F 29.84 in Calm   4.0 mph 85% 0.00 in
08:24 66.7 °F 62.0 °F 29.85 in WNW 1.0 mph 4.0 mph 85% 0.00 in
08:29 66.9 °F 61.9 °F 29.85 in Calm   5.0 mph 84% 0.00 in
08:34 67.1 °F 61.8 °F 29.85 in WNW 2.0 mph 5.0 mph 83% 0.00 in
08:39 67.2 °F 61.9 °F 29.85 in WSW 2.0 mph 5.0 mph 83% 0.00 in
08:44 67.4 °F 62.1 °F 29.85 in Calm   4.0 mph 83% 0.00 in
08:49 67.6 °F 61.9 °F 29.85 in WNW 4.0 mph 5.0 mph 82% 0.00 in
08:54 67.7 °F 62.0 °F 29.86 in West 2.0 mph 5.0 mph 82% 0.00 in
08:59 67.8 °F 62.1 °F 29.86 in West 1.0 mph 5.0 mph 82% 0.00 in
09:04 68.0 °F 61.9 °F 29.86 in West 2.0 mph 5.0 mph 81% 0.00 in
09:09 68.2 °F 62.1 °F 29.86 in West 2.0 mph 5.0 mph 81% 0.00 in
09:14 68.4 °F 62.3 °F 29.86 in West 1.0 mph 5.0 mph 81% 0.00 in
09:19 68.5 °F 62.1 °F 29.86 in West 2.0 mph 7.0 mph 80% 0.00 in
09:24 68.7 °F 62.3 °F 29.86 in WSW 3.0 mph 7.0 mph 80% 0.00 in
09:29 68.9 °F 62.1 °F 29.86 in WSW 3.0 mph 6.0 mph 79% 0.00 in
09:34 69.2 °F 62.8 °F 29.86 in Calm   4.0 mph 80% 0.00 in
09:39 69.9 °F 63.1 °F 29.87 in West 1.0 mph 6.0 mph 79% 0.00 in
09:44 71.2 °F 63.6 °F 29.87 in WSW 1.0 mph 5.0 mph 77% 0.00 in
09:49 71.3 °F 63.0 °F 29.87 in West 3.0 mph 7.0 mph 75% 0.00 in
09:54 71.2 °F 62.9 °F 29.87 in West 3.0 mph 8.0 mph 75% 0.00 in
09:59 71.0 °F 62.7 °F 29.87 in West 4.0 mph 8.0 mph 75% 0.00 in
10:04 71.4 °F 62.7 °F 29.87 in West 4.0 mph 9.0 mph 74% 0.00 in
10:09 71.8 °F 63.1 °F 29.87 in WSW 4.0 mph 9.0 mph 74% 0.00 in
10:14 72.7 °F 63.9 °F 29.87 in WSW 4.0 mph 8.0 mph 74% 0.00 in
10:19 72.9 °F 63.3 °F 29.87 in SW 5.0 mph 8.0 mph 72% 0.00 in
10:24 72.4 °F 63.6 °F 29.87 in WNW 3.0 mph 9.0 mph 74% 0.00 in
10:29 72.0 °F 63.3 °F 29.87 in WSW 6.0 mph 7.0 mph 74% 0.00 in
10:34 71.4 °F 63.1 °F 29.87 in West 4.0 mph 8.0 mph 75% 0.00 in
10:39 71.4 °F 63.4 °F 29.87 in West 1.0 mph 8.0 mph 76% 0.00 in
10:44 71.3 °F 63.3 °F 29.87 in West 2.0 mph 7.0 mph 76% 0.00 in
10:49 71.3 °F 63.3 °F 29.87 in West 4.0 mph 6.0 mph 76% 0.00 in
10:54 71.1 °F 63.1 °F 29.87 in West 3.0 mph 7.0 mph 76% 0.00 in
10:59 71.2 °F 63.2 °F 29.87 in WSW 4.0 mph 7.0 mph 76% 0.00 in
11:04 71.3 °F 63.3 °F 29.87 in West 3.0 mph 7.0 mph 76% 0.00 in
11:09 71.3 °F 63.7 °F 29.87 in West 3.0 mph 8.0 mph 77% 0.00 in
11:14 71.0 °F 63.8 °F 29.86 in WNW 4.0 mph 8.0 mph 78% 0.00 in
11:19 71.1 °F 63.5 °F 29.87 in WSW 3.0 mph 7.0 mph 77% 0.00 in
11:24 71.6 °F 63.6 °F 29.87 in West 3.0 mph 7.0 mph 76% 0.00 in
11:29 72.1 °F 64.1 °F 29.87 in West 4.0 mph 9.0 mph 76% 0.00 in
11:34 72.9 °F 64.5 °F 29.87 in WSW 5.0 mph 10.0 mph 75% 0.00 in
11:39 73.6 °F 64.8 °F 29.87 in WSW 6.0 mph 8.0 mph 74% 0.00 in
11:44 73.8 °F 65.0 °F 29.87 in SW 4.0 mph 8.0 mph 74% 0.00 in
11:49 73.5 °F 65.1 °F 29.87 in WNW 3.0 mph 10.0 mph 75% 0.00 in
11:54 72.8 °F 64.0 °F 29.87 in WSW 5.0 mph 10.0 mph 74% 0.00 in
11:59 72.1 °F 64.1 °F 29.87 in WNW 4.0 mph 10.0 mph 76% 0.00 in
12:04 72.1 °F 64.1 °F 29.87 in WSW 5.0 mph 8.0 mph 76% 0.00 in
12:09 72.9 °F 64.9 °F 29.87 in SSW 7.0 mph 8.0 mph 76% 0.00 in
12:14 73.0 °F 64.2 °F 29.87 in WSW 6.0 mph 12.0 mph 74% 0.00 in
12:19 73.2 °F 64.4 °F 29.87 in West 9.0 mph 10.0 mph 74% 0.00 in
12:24 72.5 °F 64.1 °F 29.87 in SW 6.0 mph 12.0 mph 75% 0.00 in
12:29 72.3 °F 63.9 °F 29.87 in SW 6.0 mph 15.0 mph 75% 0.00 in
12:34 72.2 °F 64.2 °F 29.87 in WSW 6.0 mph 15.0 mph 76% 0.00 in
12:39 72.4 °F 64.0 °F 29.87 in WSW 5.0 mph 12.0 mph 75% 0.00 in
12:44 72.8 °F 64.8 °F 29.87 in SW 6.0 mph 13.0 mph 76% 0.00 in
12:49 73.3 °F 64.5 °F 29.87 in WSW 10.0 mph 14.0 mph 74% 0.00 in
12:54 73.1 °F 64.7 °F 29.87 in WSW 6.0 mph 12.0 mph 75% 0.00 in
12:59 72.0 °F 63.3 °F 29.87 in WSW 6.0 mph 13.0 mph 74% 0.00 in
13:04 72.0 °F 64.4 °F 29.87 in WSW 4.0 mph 13.0 mph 77% 0.00 in
13:09 72.6 °F 64.6 °F 29.87 in WSW 11.0 mph 14.0 mph 76% 0.00 in
13:14 72.4 °F 64.0 °F 29.87 in WSW 6.0 mph 13.0 mph 75% 0.00 in
13:19 72.5 °F 64.5 °F 29.87 in SW 6.0 mph 14.0 mph 76% 0.00 in
13:24 73.2 °F 65.6 °F 29.87 in WNW 4.0 mph 11.0 mph 77% 0.00 in
13:29 73.1 °F 64.7 °F 29.87 in SW 7.0 mph 13.0 mph 75% 0.00 in
13:34 72.9 °F 64.1 °F 29.87 in WSW 6.0 mph 13.0 mph 74% 0.00 in
13:39 72.4 °F 64.4 °F 29.88 in WSW 7.0 mph 15.0 mph 76% 0.00 in
13:44 72.6 °F 64.2 °F 29.87 in WSW 7.0 mph 15.0 mph 75% 0.00 in
13:49 72.6 °F 64.2 °F 29.87 in SW 8.0 mph 12.0 mph 75% 0.00 in
13:54 72.3 °F 63.9 °F 29.87 in WSW 6.0 mph 12.0 mph 75% 0.00 in
13:59 72.6 °F 65.0 °F 29.87 in SW 6.0 mph 12.0 mph 77% 0.00 in
14:04 73.4 °F 64.6 °F 29.87 in SW 6.0 mph 12.0 mph 74% 0.00 in
14:09 73.4 °F 65.0 °F 29.87 in SW 6.0 mph 14.0 mph 75% 0.00 in
14:14 73.2 °F 64.8 °F 29.88 in SW 6.0 mph 14.0 mph 75% 0.00 in
14:19 73.0 °F 64.6 °F 29.88 in SW 10.0 mph 15.0 mph 75% 0.00 in
14:24 73.0 °F 64.6 °F 29.88 in WSW 8.0 mph 12.0 mph 75% 0.00 in
14:29 73.4 °F 65.0 °F 29.88 in SW 7.0 mph 14.0 mph 75% 0.00 in
14:34 73.5 °F 64.3 °F 29.88 in SW 7.0 mph 14.0 mph 73% 0.00 in
14:39 73.2 °F 64.4 °F 29.88 in WSW 6.0 mph 16.0 mph 74% 0.00 in
14:44 73.5 °F 64.7 °F 29.88 in SW 7.0 mph 12.0 mph 74% 0.00 in
14:49 73.2 °F 64.4 °F 29.88 in West 9.0 mph 13.0 mph 74% 0.00 in
14:54 73.3 °F 64.5 °F 29.88 in West 7.0 mph 12.0 mph 74% 0.00 in
14:59 72.9 °F 64.1 °F 29.88 in WSW 6.0 mph 12.0 mph 74% 0.00 in
15:04 72.4 °F 63.6 °F 29.88 in WSW 5.0 mph 11.0 mph 74% 0.00 in
15:09 72.0 °F 63.6 °F 29.88 in WSW 6.0 mph 12.0 mph 75% 0.00 in
15:14 71.8 °F 63.4 °F 29.88 in WSW 6.0 mph 13.0 mph 75% 0.00 in
15:19 72.1 °F 64.5 °F 29.88 in WSW 6.0 mph 13.0 mph 77% 0.00 in
15:24 72.4 °F 64.0 °F 29.88 in SW 3.0 mph 15.0 mph 75% 0.00 in
15:29 72.4 °F 63.6 °F 29.88 in SW 7.0 mph 15.0 mph 74% 0.00 in
15:34 71.4 °F 63.8 °F 29.88 in SW 6.0 mph 13.0 mph 77% 0.00 in
15:39 71.7 °F 63.7 °F 29.88 in SW 6.0 mph 15.0 mph 76% 0.00 in
15:44 71.9 °F 63.9 °F 29.88 in WSW 3.0 mph 13.0 mph 76% 0.00 in
15:49 71.7 °F 64.1 °F 29.88 in SW 5.0 mph 10.0 mph 77% 0.00 in
15:54 70.9 °F 63.3 °F 29.88 in WSW 4.0 mph 14.0 mph 77% 0.00 in
15:59 72.1 °F 64.5 °F 29.88 in SW 6.0 mph 14.0 mph 77% 0.00 in
16:04 72.0 °F 64.0 °F 29.88 in SW 6.0 mph 12.0 mph 76% 0.00 in
16:09 71.5 °F 63.5 °F 29.88 in SW 6.0 mph 12.0 mph 76% 0.00 in
16:14 71.4 °F 63.4 °F 29.88 in SW 6.0 mph 12.0 mph 76% 0.00 in
16:19 71.8 °F 63.4 °F 29.88 in SW 5.0 mph 10.0 mph 75% 0.00 in
16:24 72.1 °F 63.7 °F 29.88 in WSW 6.0 mph 12.0 mph 75% 0.00 in
16:29 71.7 °F 63.4 °F 29.88 in WSW 7.0 mph 12.0 mph 75% 0.00 in
16:34 71.4 °F 63.4 °F 29.88 in WSW 7.0 mph 15.0 mph 76% 0.00 in
16:39 71.4 °F 63.4 °F 29.88 in SW 7.0 mph 15.0 mph 76% 0.00 in
16:44 71.5 °F 63.5 °F 29.88 in SW 4.0 mph 10.0 mph 76% 0.00 in
16:49 71.4 °F 63.1 °F 29.88 in WSW 4.0 mph 13.0 mph 75% 0.00 in
16:54 71.2 °F 63.2 °F 29.88 in WSW 9.0 mph 13.0 mph 76% 0.00 in
16:59 71.0 °F 63.1 °F 29.87 in SW 5.0 mph 14.0 mph 76% 0.00 in
17:04 71.0 °F 62.7 °F 29.87 in WSW 6.0 mph 14.0 mph 75% 0.00 in
17:09 70.9 °F 63.3 °F 29.88 in SW 9.0 mph 15.0 mph 77% 0.00 in
17:14 70.8 °F 62.9 °F 29.87 in SW 8.0 mph 13.0 mph 76% 0.00 in
17:19 70.6 °F 62.7 °F 29.88 in SW 8.0 mph 13.0 mph 76% 0.00 in
17:24 70.4 °F 62.8 °F 29.88 in SSW 5.0 mph 12.0 mph 77% 0.00 in
17:29 70.4 °F 62.8 °F 29.88 in SW 7.0 mph 10.0 mph 77% 0.00 in
17:34 70.5 °F 62.6 °F 29.88 in SW 6.0 mph 10.0 mph 76% 0.00 in
17:39 70.5 °F 62.6 °F 29.88 in SW 5.0 mph 10.0 mph 76% 0.00 in
17:44 70.5 °F 62.9 °F 29.89 in SW 5.0 mph 10.0 mph 77% 0.00 in
17:49 70.4 °F 62.8 °F 29.89 in SW 5.0 mph 10.0 mph 77% 0.00 in
17:54 70.1 °F 62.6 °F 29.89 in SW 4.0 mph 12.0 mph 77% 0.00 in
17:59 69.9 °F 62.7 °F 29.89 in WSW 5.0 mph 9.0 mph 78% 0.00 in
18:04 69.7 °F 62.5 °F 29.89 in WSW 5.0 mph 11.0 mph 78% 0.00 in
18:09 69.3 °F 62.1 °F 29.89 in WSW 6.0 mph 12.0 mph 78% 0.00 in
18:14 69.3 °F 62.5 °F 29.89 in SW 5.0 mph 12.0 mph 79% 0.00 in
18:19 69.3 °F 62.5 °F 29.89 in SW 12.0 mph 12.0 mph 79% 0.00 in
18:24 69.0 °F 62.2 °F 29.90 in SW 8.0 mph 12.0 mph 79% 0.00 in
18:29 68.8 °F 62.4 °F 29.90 in SSW 5.0 mph 10.0 mph 80% 0.00 in
18:34 68.6 °F 62.2 °F 29.90 in SW 6.0 mph 12.0 mph 80% 0.00 in
18:39 68.4 °F 62.0 °F 29.90 in SW 6.0 mph 13.0 mph 80% 0.00 in
18:44 68.3 °F 62.2 °F 29.90 in SW 6.0 mph 13.0 mph 81% 0.00 in
18:49 68.2 °F 62.1 °F 29.90 in SW 6.0 mph 12.0 mph 81% 0.00 in
18:54 68.1 °F 62.0 °F 29.91 in SW 5.0 mph 10.0 mph 81% 0.00 in
18:59 67.9 °F 61.9 °F 29.91 in WSW 8.0 mph 10.0 mph 81% 0.00 in
19:04 67.9 °F 61.9 °F 29.91 in SW 3.0 mph 8.0 mph 81% 0.00 in
19:09 67.7 °F 61.7 °F 29.91 in SW 4.0 mph 8.0 mph 81% 0.00 in
19:14 67.6 °F 61.9 °F 29.91 in SW 3.0 mph 8.0 mph 82% 0.00 in
19:19 67.5 °F 61.8 °F 29.92 in WSW 6.0 mph 11.0 mph 82% 0.00 in
19:24 67.4 °F 61.7 °F 29.92 in SW 6.0 mph 10.0 mph 82% 0.00 in
19:29 67.3 °F 61.6 °F 29.92 in WNW 5.0 mph 7.0 mph 82% 0.00 in
19:34 67.3 °F 61.6 °F 29.92 in WSW 5.0 mph 9.0 mph 82% 0.00 in
19:39 67.2 °F 61.5 °F 29.92 in WSW 5.0 mph 9.0 mph 82% 0.00 in
19:44 67.1 °F 61.4 °F 29.92 in SW 4.0 mph 10.0 mph 82% 0.00 in
19:49 67.1 °F 61.4 °F 29.92 in SW 4.0 mph 10.0 mph 82% 0.00 in
19:54 67.0 °F 61.7 °F 29.92 in SW 3.0 mph 7.0 mph 83% 0.00 in
19:59 66.9 °F 61.6 °F 29.92 in SW 3.0 mph 7.0 mph 83% 0.00 in
20:04 66.9 °F 61.9 °F 29.92 in SSW 4.0 mph 8.0 mph 84% 0.00 in
20:09 66.9 °F 61.9 °F 29.93 in SW 4.0 mph 10.0 mph 84% 0.00 in
20:14 66.8 °F 61.8 °F 29.93 in WSW 2.0 mph 8.0 mph 84% 0.00 in
20:19 66.8 °F 61.8 °F 29.93 in SSW 3.0 mph 5.0 mph 84% 0.00 in
20:24 66.8 °F 61.8 °F 29.93 in West 4.0 mph 10.0 mph 84% 0.00 in
20:29 66.8 °F 61.8 °F 29.93 in WSW 8.0 mph 10.0 mph 84% 0.00 in
20:34 66.8 °F 61.8 °F 29.93 in SW 3.0 mph 8.0 mph 84% 0.00 in
20:39 66.8 °F 61.8 °F 29.94 in SW 4.0 mph 8.0 mph 84% 0.00 in
20:44 66.8 °F 62.1 °F 29.94 in SW 4.0 mph 8.0 mph 85% 0.00 in
20:49 66.8 °F 62.1 °F 29.94 in SW 4.0 mph 8.0 mph 85% 0.00 in
20:54 66.8 °F 62.1 °F 29.94 in SW 4.0 mph 8.0 mph 85% 0.00 in
20:59 66.8 °F 62.1 °F 29.94 in SW 4.0 mph 8.0 mph 85% 0.00 in
21:04 66.8 °F 62.1 °F 29.94 in SW 4.0 mph 7.0 mph 85% 0.00 in
21:09 66.9 °F 62.2 °F 29.94 in SW 4.0 mph 8.0 mph 85% 0.00 in
21:14 66.9 °F 62.2 °F 29.94 in WSW 5.0 mph 7.0 mph 85% 0.00 in
21:19 66.9 °F 62.2 °F 29.94 in SW 3.0 mph 7.0 mph 85% 0.00 in
21:24 66.9 °F 62.2 °F 29.94 in WSW 2.0 mph 8.0 mph 85% 0.00 in
21:29 66.9 °F 62.2 °F 29.95 in WSW 5.0 mph 6.0 mph 85% 0.00 in
21:34 66.9 °F 62.2 °F 29.94 in SW 3.0 mph 7.0 mph 85% 0.00 in
21:39 67.0 °F 62.3 °F 29.94 in SW 4.0 mph 9.0 mph 85% 0.00 in
21:44 67.0 °F 62.3 °F 29.94 in SW 4.0 mph 9.0 mph 85% 0.00 in
21:49 67.0 °F 62.3 °F 29.95 in SW 3.0 mph 9.0 mph 85% 0.00 in
21:54 66.9 °F 62.2 °F 29.95 in SSW 2.0 mph 8.0 mph 85% 0.00 in
21:59 66.9 °F 62.2 °F 29.95 in SW 4.0 mph 8.0 mph 85% 0.00 in
22:04 66.9 °F 62.2 °F 29.95 in WSW 2.0 mph 9.0 mph 85% 0.00 in
22:09 67.0 °F 62.3 °F 29.95 in SW 4.0 mph 9.0 mph 85% 0.00 in
22:14 67.0 °F 62.3 °F 29.95 in SW 4.0 mph 8.0 mph 85% 0.00 in
22:19 67.0 °F 62.3 °F 29.95 in SW 4.0 mph 8.0 mph 85% 0.00 in
22:24 67.0 °F 62.3 °F 29.95 in SW 8.0 mph 8.0 mph 85% 0.00 in
22:29 67.0 °F 62.3 °F 29.96 in WSW 3.0 mph 8.0 mph 85% 0.00 in
22:34 66.8 °F 62.1 °F 29.96 in WSW 3.0 mph 8.0 mph 85% 0.00 in
22:39 66.8 °F 62.1 °F 29.96 in WSW 3.0 mph 7.0 mph 85% 0.00 in
22:44 66.8 °F 62.1 °F 29.96 in WSW 3.0 mph 7.0 mph 85% 0.00 in
22:49 66.8 °F 62.1 °F 29.96 in SW 5.0 mph 6.0 mph 85% 0.00 in
22:54 66.9 °F 62.2 °F 29.97 in WSW 2.0 mph 6.0 mph 85% 0.00 in
22:59 66.8 °F 62.1 °F 29.97 in SW 2.0 mph 7.0 mph 85% 0.00 in
23:04 66.8 °F 62.1 °F 29.97 in SW 2.0 mph 7.0 mph 85% 0.00 in
23:09 66.8 °F 62.1 °F 29.97 in SW 2.0 mph 7.0 mph 85% 0.00 in
23:20 66.7 °F 62.4 °F 29.97 in SW 3.0 mph 6.0 mph 86% 0.00 in
23:29 66.6 °F 62.3 °F 29.97 in WSW 5.0 mph 6.0 mph 86% 0.00 in
23:34 66.6 °F 61.9 °F 29.97 in SW 6.0 mph 8.0 mph 85% 0.00 in
23:39 66.6 °F 61.9 °F 29.97 in WSW 2.0 mph 8.0 mph 85% 0.00 in
23:44 66.6 °F 61.9 °F 29.97 in WSW 6.0 mph 8.0 mph 85% 0.00 in
23:49 66.6 °F 61.9 °F 29.97 in SW 4.0 mph 6.0 mph 85% 0.00 in
23:54 66.6 °F 61.9 °F 29.97 in SW 4.0 mph 7.0 mph 85% 0.00 in
23:59 66.5 °F 61.8 °F 29.97 in SSW 2.0 mph 6.0 mph 85% 0.00 in
Buffalo, New York, USA
Compliments of Weather Underground - 2.5 mb